sensor_id;sensor_type;location;lat;lon;timestamp;pressure;altitude;pressure_sealevel;temperature;humidity
56807;BME280;42687;42.524;12.052;2022-09-12T00:01:08;96703.84;;;18.21;61.62
56807;BME280;42687;42.524;12.052;2022-09-12T00:03:34;96653.38;;;17.90;61.64
56807;BME280;42687;42.524;12.052;2022-09-12T00:06:00;96706.50;;;18.21;61.33
56807;BME280;42687;42.524;12.052;2022-09-12T00:08:31;96709.59;;;18.16;60.35
56807;BME280;42687;42.524;12.052;2022-09-12T00:10:56;96705.53;;;18.12;60.52
56807;BME280;42687;42.524;12.052;2022-09-12T00:13:22;96703.13;;;18.09;60.57
56807;BME280;42687;42.524;12.052;2022-09-12T00:15:47;96705.09;;;18.07;61.54
56807;BME280;42687;42.524;12.052;2022-09-12T00:18:14;96705.25;;;18.05;61.46
56807;BME280;42687;42.524;12.052;2022-09-12T00:20:45;96702.00;;;18.02;61.81
56807;BME280;42687;42.524;12.052;2022-09-12T00:23:11;96700.75;;;17.96;61.95
56807;BME280;42687;42.524;12.052;2022-09-12T00:25:41;96703.09;;;17.89;62.10
56807;BME280;42687;42.524;12.052;2022-09-12T00:28:06;96702.50;;;17.86;62.26
56807;BME280;42687;42.524;12.052;2022-09-12T00:30:32;96695.78;;;17.81;61.11
56807;BME280;42687;42.524;12.052;2022-09-12T00:32:58;96704.88;;;17.79;63.22
56807;BME280;42687;42.524;12.052;2022-09-12T00:35:23;96702.59;;;17.74;63.67
56807;BME280;42687;42.524;12.052;2022-09-12T00:37:49;96704.72;;;17.71;62.49
56807;BME280;42687;42.524;12.052;2022-09-12T00:40:14;96705.53;;;17.71;63.24
56807;BME280;42687;42.524;12.052;2022-09-12T00:42:40;96695.03;;;17.70;63.79
56807;BME280;42687;42.524;12.052;2022-09-12T00:45:07;96704.13;;;17.67;62.55
56807;BME280;42687;42.524;12.052;2022-09-12T00:47:34;96704.13;;;17.67;63.11
56807;BME280;42687;42.524;12.052;2022-09-12T00:50:07;96697.13;;;17.66;62.99
56807;BME280;42687;42.524;12.052;2022-09-12T00:52:43;96699.63;;;17.67;62.42
56807;BME280;42687;42.524;12.052;2022-09-12T00:55:12;96690.84;;;17.67;61.88
56807;BME280;42687;42.524;12.052;2022-09-12T00:57:41;96691.81;;;17.66;61.73
56807;BME280;42687;42.524;12.052;2022-09-12T01:00:09;96687.44;;;17.65;61.43
56807;BME280;42687;42.524;12.052;2022-09-12T01:02:50;96627.91;;;17.37;60.61
56807;BME280;42687;42.524;12.052;2022-09-12T01:05:18;96677.41;;;17.68;60.47
56807;BME280;42687;42.524;12.052;2022-09-12T01:07:44;96683.69;;;17.67;59.89
56807;BME280;42687;42.524;12.052;2022-09-12T01:10:13;96679.22;;;17.68;59.91
56807;BME280;42687;42.524;12.052;2022-09-12T01:12:39;96673.19;;;17.66;59.46
56807;BME280;42687;42.524;12.052;2022-09-12T01:15:06;96671.34;;;17.66;59.18
56807;BME280;42687;42.524;12.052;2022-09-12T01:22:58;96662.28;;;17.69;59.13
56807;BME280;42687;42.524;12.052;2022-09-12T01:25:35;96663.00;;;17.71;58.75
56807;BME280;42687;42.524;12.052;2022-09-12T01:28:14;96661.06;;;17.73;58.70
56807;BME280;42687;42.524;12.052;2022-09-12T01:33:23;96669.72;;;17.75;58.29
56807;BME280;42687;42.524;12.052;2022-09-12T01:40:50;96660.19;;;17.73;58.45
56807;BME280;42687;42.524;12.052;2022-09-12T01:43:22;96649.84;;;17.70;58.31
56807;BME280;42687;42.524;12.052;2022-09-12T01:54:12;96658.78;;;17.59;58.71
56807;BME280;42687;42.524;12.052;2022-09-12T01:56:40;96657.38;;;17.55;58.85
56807;BME280;42687;42.524;12.052;2022-09-12T01:59:13;96659.56;;;17.49;58.82
56807;BME280;42687;42.524;12.052;2022-09-12T02:01:48;96656.72;;;17.41;59.00
56807;BME280;42687;42.524;12.052;2022-09-12T02:04:23;96653.66;;;17.36;59.25
56807;BME280;42687;42.524;12.052;2022-09-12T02:06:53;96652.94;;;17.34;58.99
56807;BME280;42687;42.524;12.052;2022-09-12T02:11:45;96656.31;;;17.36;59.01
56807;BME280;42687;42.524;12.052;2022-09-12T02:14:35;96644.69;;;17.37;58.61
56807;BME280;42687;42.524;12.052;2022-09-12T02:19:26;96648.06;;;17.39;58.66
56807;BME280;42687;42.524;12.052;2022-09-12T02:21:57;96649.88;;;17.39;58.61
56807;BME280;42687;42.524;12.052;2022-09-12T02:24:24;96647.34;;;17.37;58.47
56807;BME280;42687;42.524;12.052;2022-09-12T02:26:53;96639.50;;;17.36;58.57
56807;BME280;42687;42.524;12.052;2022-09-12T02:29:19;96635.31;;;17.33;58.80
56807;BME280;42687;42.524;12.052;2022-09-12T02:32:27;96641.03;;;17.28;58.62
56807;BME280;42687;42.524;12.052;2022-09-12T02:37:20;96634.56;;;17.21;58.68
56807;BME280;42687;42.524;12.052;2022-09-12T02:39:50;96623.94;;;17.21;58.90
56807;BME280;42687;42.524;12.052;2022-09-12T02:42:18;96633.59;;;17.22;58.37
56807;BME280;42687;42.524;12.052;2022-09-12T02:44:44;96635.28;;;17.23;58.90
56807;BME280;42687;42.524;12.052;2022-09-12T02:47:11;96631.91;;;17.21;58.60
56807;BME280;42687;42.524;12.052;2022-09-12T02:49:39;96634.69;;;17.20;58.42
56807;BME280;42687;42.524;12.052;2022-09-12T02:52:04;96637.34;;;17.20;58.76
56807;BME280;42687;42.524;12.052;2022-09-12T02:54:31;96636.66;;;17.17;58.88
56807;BME280;42687;42.524;12.052;2022-09-12T02:56:56;96636.22;;;17.12;59.11
56807;BME280;42687;42.524;12.052;2022-09-12T02:59:22;96636.75;;;17.06;59.38
56807;BME280;42687;42.524;12.052;2022-09-12T03:01:56;96630.53;;;16.96;59.48
56807;BME280;42687;42.524;12.052;2022-09-12T03:04:27;96636.88;;;16.83;59.34
56807;BME280;42687;42.524;12.052;2022-09-12T03:09:38;96622.69;;;16.73;59.07
56807;BME280;42687;42.524;12.052;2022-09-12T03:15:24;96624.97;;;16.78;58.64
56807;BME280;42687;42.524;12.052;2022-09-12T03:17:29;96622.88;;;16.81;58.57
56807;BME280;42687;42.524;12.052;2022-09-12T03:20:00;96622.78;;;16.83;58.54
56807;BME280;42687;42.524;12.052;2022-09-12T03:25:00;96624.28;;;16.85;58.36
56807;BME280;42687;42.524;12.052;2022-09-12T03:27:39;96624.44;;;16.84;58.36
56807;BME280;42687;42.524;12.052;2022-09-12T03:30:07;96620.34;;;16.80;58.67
56807;BME280;42687;42.524;12.052;2022-09-12T03:32:46;96631.75;;;16.71;58.83
56807;BME280;42687;42.524;12.052;2022-09-12T03:35:12;96633.41;;;16.62;59.44
56807;BME280;42687;42.524;12.052;2022-09-12T03:37:39;96628.34;;;16.59;59.39
56807;BME280;42687;42.524;12.052;2022-09-12T03:40:05;96626.91;;;16.55;60.21
56807;BME280;42687;42.524;12.052;2022-09-12T03:42:31;96631.78;;;16.49;60.63
56807;BME280;42687;42.524;12.052;2022-09-12T03:44:58;96629.44;;;16.35;61.32
56807;BME280;42687;42.524;12.052;2022-09-12T03:47:24;96641.34;;;16.20;61.71
56807;BME280;42687;42.524;12.052;2022-09-12T03:49:49;96643.06;;;16.09;62.65
56807;BME280;42687;42.524;12.052;2022-09-12T03:52:17;96618.03;;;15.79;64.04
56807;BME280;42687;42.524;12.052;2022-09-12T03:54:42;96651.44;;;15.93;65.39
56807;BME280;42687;42.524;12.052;2022-09-12T03:57:08;96651.59;;;15.80;66.39
56807;BME280;42687;42.524;12.052;2022-09-12T03:59:33;96653.50;;;15.67;66.83
56807;BME280;42687;42.524;12.052;2022-09-12T04:01:59;96663.16;;;15.57;65.85
56807;BME280;42687;42.524;12.052;2022-09-12T04:04:24;96653.28;;;15.47;65.48
56807;BME280;42687;42.524;12.052;2022-09-12T04:06:50;96655.84;;;15.38;65.15
56807;BME280;42687;42.524;12.052;2022-09-12T04:09:15;96667.44;;;15.25;66.86
56807;BME280;42687;42.524;12.052;2022-09-12T04:11:41;96657.66;;;15.14;67.52
56807;BME280;42687;42.524;12.052;2022-09-12T04:14:06;96661.16;;;15.15;66.17
56807;BME280;42687;42.524;12.052;2022-09-12T04:16:31;96663.19;;;15.11;66.65
56807;BME280;42687;42.524;12.052;2022-09-12T04:18:57;96652.84;;;15.08;66.84
56807;BME280;42687;42.524;12.052;2022-09-12T04:21:23;96651.75;;;14.99;68.35
56807;BME280;42687;42.524;12.052;2022-09-12T04:23:48;96658.00;;;14.87;69.78
56807;BME280;42687;42.524;12.052;2022-09-12T04:26:14;96662.78;;;14.71;69.56
56807;BME280;42687;42.524;12.052;2022-09-12T04:28:41;96663.34;;;14.63;69.60
56807;BME280;42687;42.524;12.052;2022-09-12T04:31:14;96662.63;;;14.61;69.03
56807;BME280;42687;42.524;12.052;2022-09-12T04:33:42;96656.50;;;14.60;67.81
56807;BME280;42687;42.524;12.052;2022-09-12T04:36:08;96660.63;;;14.64;68.38
56807;BME280;42687;42.524;12.052;2022-09-12T04:38:35;96669.81;;;14.59;68.40
56807;BME280;42687;42.524;12.052;2022-09-12T04:41:08;96669.81;;;14.47;68.42
56807;BME280;42687;42.524;12.052;2022-09-12T04:43:34;96662.94;;;14.45;67.85
56807;BME280;42687;42.524;12.052;2022-09-12T04:46:03;96664.63;;;14.46;67.31
56807;BME280;42687;42.524;12.052;2022-09-12T04:48:29;96665.47;;;14.46;67.67
56807;BME280;42687;42.524;12.052;2022-09-12T04:50:54;96669.31;;;14.42;67.71
56807;BME280;42687;42.524;12.052;2022-09-12T04:53:20;96668.69;;;14.39;68.06
56807;BME280;42687;42.524;12.052;2022-09-12T04:55:45;96669.66;;;14.38;68.13
56807;BME280;42687;42.524;12.052;2022-09-12T04:58:11;96671.44;;;14.37;68.24
56807;BME280;42687;42.524;12.052;2022-09-12T05:00:36;96670.63;;;14.48;67.79
56807;BME280;42687;42.524;12.052;2022-09-12T05:03:02;96668.66;;;14.63;67.48
56807;BME280;42687;42.524;12.052;2022-09-12T05:05:27;96671.84;;;14.79;66.83
56807;BME280;42687;42.524;12.052;2022-09-12T05:07:53;96674.97;;;14.96;66.45
56807;BME280;42687;42.524;12.052;2022-09-12T05:10:18;96674.88;;;15.09;66.82
56807;BME280;42687;42.524;12.052;2022-09-12T05:12:44;96676.69;;;15.20;66.34
56807;BME280;42687;42.524;12.052;2022-09-12T05:15:09;96673.56;;;15.26;65.73
56807;BME280;42687;42.524;12.052;2022-09-12T05:17:35;96681.03;;;15.32;65.70
56807;BME280;42687;42.524;12.052;2022-09-12T05:20:01;96679.94;;;15.34;66.97
56807;BME280;42687;42.524;12.052;2022-09-12T05:22:27;96680.53;;;15.38;65.21
56807;BME280;42687;42.524;12.052;2022-09-12T05:24:52;96681.97;;;15.42;66.37
56807;BME280;42687;42.524;12.052;2022-09-12T05:27:18;96689.22;;;15.40;67.47
56807;BME280;42687;42.524;12.052;2022-09-12T05:29:44;96698.00;;;15.41;67.89
56807;BME280;42687;42.524;12.052;2022-09-12T05:32:09;96707.03;;;15.38;68.04
56807;BME280;42687;42.524;12.052;2022-09-12T05:34:37;96697.50;;;15.35;69.05
56807;BME280;42687;42.524;12.052;2022-09-12T05:37:02;96698.59;;;15.33;67.96
56807;BME280;42687;42.524;12.052;2022-09-12T05:39:28;96696.06;;;15.31;68.96
56807;BME280;42687;42.524;12.052;2022-09-12T05:41:53;96711.00;;;15.32;69.91
56807;BME280;42687;42.524;12.052;2022-09-12T05:44:20;96711.63;;;15.36;68.95
56807;BME280;42687;42.524;12.052;2022-09-12T05:46:45;96712.94;;;15.42;69.59
56807;BME280;42687;42.524;12.052;2022-09-12T05:49:14;96717.88;;;15.46;68.55
56807;BME280;42687;42.524;12.052;2022-09-12T05:51:40;96717.03;;;15.57;67.60
56807;BME280;42687;42.524;12.052;2022-09-12T05:54:07;96717.50;;;15.74;66.02
56807;BME280;42687;42.524;12.052;2022-09-12T05:56:36;96717.75;;;15.93;65.79
56807;BME280;42687;42.524;12.052;2022-09-12T05:59:08;96725.41;;;16.08;66.94
56807;BME280;42687;42.524;12.052;2022-09-12T06:01:36;96725.84;;;16.24;65.46
56807;BME280;42687;42.524;12.052;2022-09-12T06:04:03;96730.09;;;16.48;66.96
56807;BME280;42687;42.524;12.052;2022-09-12T06:06:29;96716.53;;;16.83;66.02
56807;BME280;42687;42.524;12.052;2022-09-12T06:08:56;96715.47;;;17.38;63.93
56807;BME280;42687;42.524;12.052;2022-09-12T06:11:23;96723.00;;;17.95;62.22
56807;BME280;42687;42.524;12.052;2022-09-12T06:13:50;96726.31;;;18.47;61.50
56807;BME280;42687;42.524;12.052;2022-09-12T06:16:22;96713.69;;;18.98;61.03
56807;BME280;42687;42.524;12.052;2022-09-12T06:18:52;96720.84;;;19.45;61.74
56807;BME280;42687;42.524;12.052;2022-09-12T06:21:18;96717.19;;;19.84;61.98
56807;BME280;42687;42.524;12.052;2022-09-12T06:23:44;96729.03;;;20.27;62.38
56807;BME280;42687;42.524;12.052;2022-09-12T06:26:10;96720.81;;;20.75;62.40
56807;BME280;42687;42.524;12.052;2022-09-12T06:28:38;96726.00;;;21.21;61.92
56807;BME280;42687;42.524;12.052;2022-09-12T06:31:04;96715.25;;;21.65;61.49
56807;BME280;42687;42.524;12.052;2022-09-12T06:33:31;96728.00;;;22.14;60.96
56807;BME280;42687;42.524;12.052;2022-09-12T06:38:32;96728.28;;;23.11;59.73
56807;BME280;42687;42.524;12.052;2022-09-12T06:40:57;96742.31;;;23.63;58.40
56807;BME280;42687;42.524;12.052;2022-09-12T06:43:24;96735.09;;;24.20;56.66
56807;BME280;42687;42.524;12.052;2022-09-12T06:45:49;96737.19;;;24.64;55.58
56807;BME280;42687;42.524;12.052;2022-09-12T06:48:15;96742.13;;;24.98;54.30
56807;BME280;42687;42.524;12.052;2022-09-12T06:50:41;96731.97;;;25.09;53.84
56807;BME280;42687;42.524;12.052;2022-09-12T06:53:06;96735.16;;;25.51;52.70
56807;BME280;42687;42.524;12.052;2022-09-12T06:55:32;96730.78;;;25.94;51.99
56807;BME280;42687;42.524;12.052;2022-09-12T06:57:58;96739.44;;;26.20;51.75
56807;BME280;42687;42.524;12.052;2022-09-12T07:00:23;96737.28;;;26.30;52.06
56807;BME280;42687;42.524;12.052;2022-09-12T07:02:52;96747.75;;;26.40;52.17
56807;BME280;42687;42.524;12.052;2022-09-12T07:05:18;96736.00;;;26.47;52.75
56807;BME280;42687;42.524;12.052;2022-09-12T07:07:43;96742.00;;;26.64;52.42
56807;BME280;42687;42.524;12.052;2022-09-12T07:10:09;96747.81;;;26.83;52.70
56807;BME280;42687;42.524;12.052;2022-09-12T07:12:36;96752.25;;;27.12;52.21
56807;BME280;42687;42.524;12.052;2022-09-12T07:15:02;96752.94;;;27.43;52.22
56807;BME280;42687;42.524;12.052;2022-09-12T07:17:27;96748.56;;;27.77;51.64
56807;BME280;42687;42.524;12.052;2022-09-12T07:19:53;96751.97;;;27.86;51.22
56807;BME280;42687;42.524;12.052;2022-09-12T07:22:18;96759.69;;;27.95;51.53
56807;BME280;42687;42.524;12.052;2022-09-12T07:24:44;96753.78;;;28.13;51.20
56807;BME280;42687;42.524;12.052;2022-09-12T07:27:10;96747.78;;;28.25;51.40
56807;BME280;42687;42.524;12.052;2022-09-12T07:29:35;96752.25;;;28.46;50.96
56807;BME280;42687;42.524;12.052;2022-09-12T07:32:01;96759.38;;;28.60;50.28
56807;BME280;42687;42.524;12.052;2022-09-12T07:34:27;96751.75;;;28.77;50.29
56807;BME280;42687;42.524;12.052;2022-09-12T07:36:52;96759.88;;;28.98;49.52
56807;BME280;42687;42.524;12.052;2022-09-12T07:39:18;96757.81;;;29.00;49.44
56807;BME280;42687;42.524;12.052;2022-09-12T07:41:44;96755.31;;;28.98;49.32
56807;BME280;42687;42.524;12.052;2022-09-12T07:44:09;96764.91;;;29.01;49.42
56807;BME280;42687;42.524;12.052;2022-09-12T07:46:35;96759.66;;;28.99;49.32
56807;BME280;42687;42.524;12.052;2022-09-12T07:49:00;96766.75;;;29.00;49.25
56807;BME280;42687;42.524;12.052;2022-09-12T07:51:27;96764.50;;;29.10;49.52
56807;BME280;42687;42.524;12.052;2022-09-12T07:53:53;96762.84;;;29.36;48.66
56807;BME280;42687;42.524;12.052;2022-09-12T07:56:19;96771.59;;;29.58;48.12
56807;BME280;42687;42.524;12.052;2022-09-12T07:58:45;96771.56;;;29.78;47.73
56807;BME280;42687;42.524;12.052;2022-09-12T08:01:14;96775.34;;;29.91;47.33
56807;BME280;42687;42.524;12.052;2022-09-12T08:03:41;96771.16;;;29.95;46.99
56807;BME280;42687;42.524;12.052;2022-09-12T08:06:11;96772.22;;;29.60;47.62
56807;BME280;42687;42.524;12.052;2022-09-12T08:08:38;96777.84;;;29.45;47.56
56807;BME280;42687;42.524;12.052;2022-09-12T08:11:04;96771.78;;;29.23;48.02
56807;BME280;42687;42.524;12.052;2022-09-12T08:13:30;96774.91;;;29.20;48.01
56807;BME280;42687;42.524;12.052;2022-09-12T08:16:00;96783.91;;;29.48;47.80
56807;BME280;42687;42.524;12.052;2022-09-12T08:18:26;96781.38;;;29.66;47.26
56807;BME280;42687;42.524;12.052;2022-09-12T08:20:59;96766.81;;;29.54;46.69
56807;BME280;42687;42.524;12.052;2022-09-12T08:23:25;96783.47;;;29.64;46.91
56807;BME280;42687;42.524;12.052;2022-09-12T08:25:55;96779.94;;;29.57;47.02
56807;BME280;42687;42.524;12.052;2022-09-12T08:28:21;96785.34;;;29.57;46.54
56807;BME280;42687;42.524;12.052;2022-09-12T08:30:47;96785.97;;;29.59;46.65
56807;BME280;42687;42.524;12.052;2022-09-12T08:33:12;96787.03;;;29.65;46.69
56807;BME280;42687;42.524;12.052;2022-09-12T08:35:39;96786.38;;;29.69;46.24
56807;BME280;42687;42.524;12.052;2022-09-12T08:38:04;96792.03;;;29.61;46.13
56807;BME280;42687;42.524;12.052;2022-09-12T08:40:30;96798.25;;;29.82;45.85
56807;BME280;42687;42.524;12.052;2022-09-12T08:45:46;96795.53;;;30.08;45.53
56807;BME280;42687;42.524;12.052;2022-09-12T08:48:15;96794.88;;;30.13;45.51
56807;BME280;42687;42.524;12.052;2022-09-12T08:50:40;96801.97;;;30.14;45.39
56807;BME280;42687;42.524;12.052;2022-09-12T08:53:15;96802.78;;;30.21;45.07
56807;BME280;42687;42.524;12.052;2022-09-12T08:55:44;96792.59;;;30.10;44.97
56807;BME280;42687;42.524;12.052;2022-09-12T08:58:16;96800.09;;;30.08;44.93
56807;BME280;42687;42.524;12.052;2022-09-12T09:03:40;96806.97;;;30.10;44.76
56807;BME280;42687;42.524;12.052;2022-09-12T09:13:46;96809.91;;;30.09;44.52
56807;BME280;42687;42.524;12.052;2022-09-12T09:16:34;96812.03;;;30.00;44.52
56807;BME280;42687;42.524;12.052;2022-09-12T09:19:02;96807.88;;;29.91;44.28
56807;BME280;42687;42.524;12.052;2022-09-12T09:21:34;96799.94;;;30.03;44.41
56807;BME280;42687;42.524;12.052;2022-09-12T09:24:03;96808.22;;;30.08;44.24
56807;BME280;42687;42.524;12.052;2022-09-12T09:29:01;96803.91;;;30.00;44.19
56807;BME280;42687;42.524;12.052;2022-09-12T09:31:29;96808.25;;;30.01;43.93
56807;BME280;42687;42.524;12.052;2022-09-12T09:33:57;96780.94;;;29.76;43.38
56807;BME280;42687;42.524;12.052;2022-09-12T09:39:04;96812.22;;;29.92;42.90
56807;BME280;42687;42.524;12.052;2022-09-12T09:41:34;96808.25;;;29.94;42.73
56807;BME280;42687;42.524;12.052;2022-09-12T09:44:01;96811.38;;;29.85;42.97
56807;BME280;42687;42.524;12.052;2022-09-12T09:46:27;96804.50;;;29.95;42.48
56807;BME280;42687;42.524;12.052;2022-09-12T09:48:53;96805.94;;;30.05;42.10
56807;BME280;42687;42.524;12.052;2022-09-12T09:51:25;96805.97;;;29.91;41.85
56807;BME280;42687;42.524;12.052;2022-09-12T09:54:01;96810.34;;;29.86;41.64
56807;BME280;42687;42.524;12.052;2022-09-12T09:58:53;96801.00;;;29.88;41.37
56807;BME280;42687;42.524;12.052;2022-09-12T10:01:18;96804.72;;;29.81;40.72
56807;BME280;42687;42.524;12.052;2022-09-12T10:03:52;96807.66;;;29.72;40.68
56807;BME280;42687;42.524;12.052;2022-09-12T10:08:47;96806.63;;;29.93;40.39
56807;BME280;42687;42.524;12.052;2022-09-12T10:11:20;96786.16;;;29.98;39.95
56807;BME280;42687;42.524;12.052;2022-09-12T10:18:47;96802.00;;;29.81;39.82
56807;BME280;42687;42.524;12.052;2022-09-12T10:21:17;96803.03;;;30.00;39.38
56807;BME280;42687;42.524;12.052;2022-09-12T10:23:45;96798.00;;;30.17;38.57
56807;BME280;42687;42.524;12.052;2022-09-12T10:26:12;96806.50;;;30.34;38.74
56807;BME280;42687;42.524;12.052;2022-09-12T10:31:05;96789.00;;;30.30;36.21
56807;BME280;42687;42.524;12.052;2022-09-12T10:33:33;96789.63;;;30.25;38.12
56807;BME280;42687;42.524;12.052;2022-09-12T10:36:02;96775.84;;;30.26;37.88
56807;BME280;42687;42.524;12.052;2022-09-12T10:38:29;96788.34;;;30.27;37.19
56807;BME280;42687;42.524;12.052;2022-09-12T10:43:29;96788.56;;;30.33;36.98
56807;BME280;42687;42.524;12.052;2022-09-12T10:45:59;96778.78;;;30.25;36.38
56807;BME280;42687;42.524;12.052;2022-09-12T10:48:44;96779.19;;;30.28;36.26
56807;BME280;42687;42.524;12.052;2022-09-12T10:51:29;96755.53;;;30.42;35.99
56807;BME280;42687;42.524;12.052;2022-09-12T10:53:54;96777.94;;;30.76;35.82
56807;BME280;42687;42.524;12.052;2022-09-12T10:58:58;96768.19;;;31.01;32.97
56807;BME280;42687;42.524;12.052;2022-09-12T11:20:34;96776.84;;;31.73;34.93
56807;BME280;42687;42.524;12.052;2022-09-12T11:23:19;96775.72;;;31.56;34.59
56807;BME280;42687;42.524;12.052;2022-09-12T11:25:51;96774.13;;;31.48;34.94
56807;BME280;42687;42.524;12.052;2022-09-12T11:28:29;96773.31;;;31.48;34.79
56807;BME280;42687;42.524;12.052;2022-09-12T11:33:30;96766.03;;;31.67;34.18
56807;BME280;42687;42.524;12.052;2022-09-12T11:35:59;96761.44;;;31.86;34.51
56807;BME280;42687;42.524;12.052;2022-09-12T11:43:28;96751.84;;;31.39;35.67
56807;BME280;42687;42.524;12.052;2022-09-12T11:46:39;96766.75;;;31.30;35.76
56807;BME280;42687;42.524;12.052;2022-09-12T11:51:16;96760.94;;;31.77;34.60
56807;BME280;42687;42.524;12.052;2022-09-12T11:53:42;96760.59;;;31.67;30.86
56807;BME280;42687;42.524;12.052;2022-09-12T11:56:16;96756.03;;;31.67;34.78
56807;BME280;42687;42.524;12.052;2022-09-12T11:58:44;96765.25;;;31.59;35.46
56807;BME280;42687;42.524;12.052;2022-09-12T12:01:22;96754.63;;;31.58;35.32
56807;BME280;42687;42.524;12.052;2022-09-12T12:03:50;96751.25;;;31.63;35.74
56807;BME280;42687;42.524;12.052;2022-09-12T12:09:20;96751.63;;;31.66;34.71
56807;BME280;42687;42.524;12.052;2022-09-12T12:11:52;96750.31;;;31.94;35.39
56807;BME280;42687;42.524;12.052;2022-09-12T12:17:17;96749.84;;;31.97;34.18
56807;BME280;42687;42.524;12.052;2022-09-12T12:19:44;96746.66;;;32.00;34.21
56807;BME280;42687;42.524;12.052;2022-09-12T12:22:14;96735.41;;;31.78;34.60
56807;BME280;42687;42.524;12.052;2022-09-12T12:24:58;96735.16;;;31.61;35.14
56807;BME280;42687;42.524;12.052;2022-09-12T12:33:00;96727.63;;;31.82;35.42
56807;BME280;42687;42.524;12.052;2022-09-12T12:38:04;96714.41;;;31.85;32.57
56807;BME280;42687;42.524;12.052;2022-09-12T12:40:49;96726.88;;;31.93;33.50
56807;BME280;42687;42.524;12.052;2022-09-12T12:43:28;96719.69;;;31.99;32.37
56807;BME280;42687;42.524;12.052;2022-09-12T12:46:00;96722.81;;;32.21;34.29
56807;BME280;42687;42.524;12.052;2022-09-12T12:48:27;96713.53;;;32.29;32.48
56807;BME280;42687;42.524;12.052;2022-09-12T12:51:13;96712.06;;;32.45;33.83
56807;BME280;42687;42.524;12.052;2022-09-12T12:53:41;96717.78;;;32.55;32.98
56807;BME280;42687;42.524;12.052;2022-09-12T12:56:20;96711.34;;;32.49;32.98
56807;BME280;42687;42.524;12.052;2022-09-12T12:58:55;96711.78;;;32.65;34.47
56807;BME280;42687;42.524;12.052;2022-09-12T13:01:22;96703.28;;;32.42;33.20
56807;BME280;42687;42.524;12.052;2022-09-12T13:03:54;96707.81;;;32.49;34.81
56807;BME280;42687;42.524;12.052;2022-09-12T13:06:30;96705.03;;;32.37;33.60
56807;BME280;42687;42.524;12.052;2022-09-12T13:09:06;96698.00;;;32.29;35.07
56807;BME280;42687;42.524;12.052;2022-09-12T13:11:34;96696.66;;;31.83;34.84
56807;BME280;42687;42.524;12.052;2022-09-12T13:14:02;96698.50;;;31.45;35.61
56807;BME280;42687;42.524;12.052;2022-09-12T13:16:39;96696.31;;;31.54;35.72
56807;BME280;42687;42.524;12.052;2022-09-12T13:19:19;96707.09;;;31.67;35.14
56807;BME280;42687;42.524;12.052;2022-09-12T13:21:54;96703.38;;;31.80;33.96
56807;BME280;42687;42.524;12.052;2022-09-12T13:24:21;96692.94;;;32.14;33.57
56807;BME280;42687;42.524;12.052;2022-09-12T13:26:46;96689.44;;;32.44;32.45
56807;BME280;42687;42.524;12.052;2022-09-12T13:29:16;96690.59;;;32.67;32.67
56807;BME280;42687;42.524;12.052;2022-09-12T13:31:42;96663.38;;;32.67;33.20
56807;BME280;42687;42.524;12.052;2022-09-12T13:34:10;96692.09;;;32.63;34.04
56807;BME280;42687;42.524;12.052;2022-09-12T13:36:46;96688.16;;;32.47;33.18
56807;BME280;42687;42.524;12.052;2022-09-12T13:42:14;96657.06;;;32.24;33.30
56807;BME280;42687;42.524;12.052;2022-09-12T13:47:29;96673.84;;;32.02;33.51
56807;BME280;42687;42.524;12.052;2022-09-12T13:49:55;96673.09;;;31.76;33.95
56807;BME280;42687;42.524;12.052;2022-09-12T13:52:25;96677.06;;;31.37;35.05
56807;BME280;42687;42.524;12.052;2022-09-12T13:54:53;96667.94;;;30.99;35.37
56807;BME280;42687;42.524;12.052;2022-09-12T13:57:30;96664.81;;;30.70;35.37
56807;BME280;42687;42.524;12.052;2022-09-12T13:59:56;96668.72;;;30.42;35.80
56807;BME280;42687;42.524;12.052;2022-09-12T14:02:22;96676.25;;;30.02;36.51
56807;BME280;42687;42.524;12.052;2022-09-12T14:04:49;96665.72;;;29.60;36.84
56807;BME280;42687;42.524;12.052;2022-09-12T14:10:12;96621.84;;;28.64;38.11
56807;BME280;42687;42.524;12.052;2022-09-12T14:12:39;96663.91;;;28.67;37.92
56807;BME280;42687;42.524;12.052;2022-09-12T14:15:26;96640.72;;;28.31;38.32
56807;BME280;42687;42.524;12.052;2022-09-12T14:17:54;96649.88;;;28.29;37.86
56807;BME280;42687;42.524;12.052;2022-09-12T14:20:26;96651.50;;;28.10;38.89
56807;BME280;42687;42.524;12.052;2022-09-12T14:22:52;96650.97;;;27.93;39.06
56807;BME280;42687;42.524;12.052;2022-09-12T14:25:19;96641.75;;;27.74;39.04
56807;BME280;42687;42.524;12.052;2022-09-12T14:27:50;96640.84;;;27.60;39.04
56807;BME280;42687;42.524;12.052;2022-09-12T14:30:33;96609.75;;;27.36;38.96
56807;BME280;42687;42.524;12.052;2022-09-12T14:35:40;96627.00;;;27.35;38.66
56807;BME280;42687;42.524;12.052;2022-09-12T14:38:30;96629.41;;;27.23;38.72
56807;BME280;42687;42.524;12.052;2022-09-12T14:40:57;96634.31;;;27.13;38.91
56807;BME280;42687;42.524;12.052;2022-09-12T14:43:25;96632.03;;;27.10;39.20
56807;BME280;42687;42.524;12.052;2022-09-12T14:45:53;96602.22;;;26.90;38.93
56807;BME280;42687;42.524;12.052;2022-09-12T14:48:19;96628.81;;;27.00;39.10
56807;BME280;42687;42.524;12.052;2022-09-12T14:50:48;96624.00;;;26.95;38.84
56807;BME280;42687;42.524;12.052;2022-09-12T14:55:44;96630.72;;;26.77;39.46
56807;BME280;42687;42.524;12.052;2022-09-12T14:58:14;96638.09;;;26.69;39.47
56807;BME280;42687;42.524;12.052;2022-09-12T15:00:57;96637.19;;;26.61;39.02
56807;BME280;42687;42.524;12.052;2022-09-12T15:03:30;96632.28;;;26.43;39.26
56807;BME280;42687;42.524;12.052;2022-09-12T15:05:56;96637.69;;;26.07;39.51
56807;BME280;42687;42.524;12.052;2022-09-12T15:08:22;96628.94;;;25.68;40.17
56807;BME280;42687;42.524;12.052;2022-09-12T15:10:48;96626.44;;;25.37;40.15